sensor_id;sensor_type;location;lat;lon;timestamp;temperature;humidity
14349;DHT22;7258;50.376;8.742;2023-04-02T00:00:27;9.20;99.90
14349;DHT22;7258;50.376;8.742;2023-04-02T00:02:31;9.20;99.90
14349;DHT22;7258;50.376;8.742;2023-04-02T00:04:36;9.20;99.90
14349;DHT22;7258;50.376;8.742;2023-04-02T00:06:40;9.20;99.90
14349;DHT22;7258;50.376;8.742;2023-04-02T00:08:46;9.20;99.90
14349;DHT22;7258;50.376;8.742;2023-04-02T00:10:50;9.20;99.90
14349;DHT22;7258;50.376;8.742;2023-04-02T00:12:59;9.20;99.90
14349;DHT22;7258;50.376;8.742;2023-04-02T00:15:03;9.20;99.90
14349;DHT22;7258;50.376;8.742;2023-04-02T00:17:05;9.20;99.90
14349;DHT22;7258;50.376;8.742;2023-04-02T00:19:13;9.20;99.90
14349;DHT22;7258;50.376;8.742;2023-04-02T00:21:22;9.20;99.90
14349;DHT22;7258;50.376;8.742;2023-04-02T00:23:27;9.20;99.90
14349;DHT22;7258;50.376;8.742;2023-04-02T00:25:34;9.20;99.90
14349;DHT22;7258;50.376;8.742;2023-04-02T00:27:43;9.20;99.90
14349;DHT22;7258;50.376;8.742;2023-04-02T00:29:47;9.20;99.90
14349;DHT22;7258;50.376;8.742;2023-04-02T00:31:52;9.20;99.90
14349;DHT22;7258;50.376;8.742;2023-04-02T00:33:57;9.20;99.90
14349;DHT22;7258;50.376;8.742;2023-04-02T00:36:05;9.10;99.90
14349;DHT22;7258;50.376;8.742;2023-04-02T00:38:18;9.20;99.90
14349;DHT22;7258;50.376;8.742;2023-04-02T00:40:24;9.20;99.90
14349;DHT22;7258;50.376;8.742;2023-04-02T00:42:29;9.20;99.90
14349;DHT22;7258;50.376;8.742;2023-04-02T00:44:36;9.20;99.90
14349;DHT22;7258;50.376;8.742;2023-04-02T00:46:42;9.20;99.90
14349;DHT22;7258;50.376;8.742;2023-04-02T00:48:51;9.20;99.90
14349;DHT22;7258;50.376;8.742;2023-04-02T00:50:56;9.20;99.90
14349;DHT22;7258;50.376;8.742;2023-04-02T00:53:04;9.20;99.90
14349;DHT22;7258;50.376;8.742;2023-04-02T00:55:16;9.20;99.90
14349;DHT22;7258;50.376;8.742;2023-04-02T00:57:21;9.20;99.90
14349;DHT22;7258;50.376;8.742;2023-04-02T00:59:28;9.20;99.90
14349;DHT22;7258;50.376;8.742;2023-04-02T01:01:35;9.20;99.90
14349;DHT22;7258;50.376;8.742;2023-04-02T01:03:52;9.20;99.90
14349;DHT22;7258;50.376;8.742;2023-04-02T01:06:03;9.20;99.90
14349;DHT22;7258;50.376;8.742;2023-04-02T01:08:17;9.20;99.90
14349;DHT22;7258;50.376;8.742;2023-04-02T01:10:40;9.20;99.90
14349;DHT22;7258;50.376;8.742;2023-04-02T01:12:53;9.10;99.90
14349;DHT22;7258;50.376;8.742;2023-04-02T01:15:05;9.20;99.90
14349;DHT22;7258;50.376;8.742;2023-04-02T01:17:26;9.20;99.90
14349;DHT22;7258;50.376;8.742;2023-04-02T01:19:53;9.20;99.90
14349;DHT22;7258;50.376;8.742;2023-04-02T01:22:04;9.20;99.90
14349;DHT22;7258;50.376;8.742;2023-04-02T01:24:10;9.20;99.90
14349;DHT22;7258;50.376;8.742;2023-04-02T01:26:22;9.20;99.90
14349;DHT22;7258;50.376;8.742;2023-04-02T01:28:33;9.20;99.90
14349;DHT22;7258;50.376;8.742;2023-04-02T01:30:44;9.20;99.90
14349;DHT22;7258;50.376;8.742;2023-04-02T01:32:51;9.20;99.90
14349;DHT22;7258;50.376;8.742;2023-04-02T01:34:56;9.20;99.90
14349;DHT22;7258;50.376;8.742;2023-04-02T01:37:14;9.20;99.90
14349;DHT22;7258;50.376;8.742;2023-04-02T01:39:33;9.20;99.90
14349;DHT22;7258;50.376;8.742;2023-04-02T01:41:44;9.20;99.90
14349;DHT22;7258;50.376;8.742;2023-04-02T01:43:52;9.20;99.90
14349;DHT22;7258;50.376;8.742;2023-04-02T01:46:02;9.10;99.90
14349;DHT22;7258;50.376;8.742;2023-04-02T01:48:12;9.10;99.90
14349;DHT22;7258;50.376;8.742;2023-04-02T01:50:23;9.10;99.90
14349;DHT22;7258;50.376;8.742;2023-04-02T01:52:35;9.10;99.90
14349;DHT22;7258;50.376;8.742;2023-04-02T01:54:40;9.10;99.90
14349;DHT22;7258;50.376;8.742;2023-04-02T01:56:44;9.10;99.90
14349;DHT22;7258;50.376;8.742;2023-04-02T01:58:48;9.00;99.90
14349;DHT22;7258;50.376;8.742;2023-04-02T02:00:55;9.10;99.90
14349;DHT22;7258;50.376;8.742;2023-04-02T02:03:00;9.10;99.90
14349;DHT22;7258;50.376;8.742;2023-04-02T02:05:04;9.10;99.90
14349;DHT22;7258;50.376;8.742;2023-04-02T02:07:13;9.10;99.90
14349;DHT22;7258;50.376;8.742;2023-04-02T02:09:18;9.10;99.90
14349;DHT22;7258;50.376;8.742;2023-04-02T02:11:25;9.00;99.90
14349;DHT22;7258;50.376;8.742;2023-04-02T02:13:29;9.00;99.90
14349;DHT22;7258;50.376;8.742;2023-04-02T02:15:34;9.00;99.90
14349;DHT22;7258;50.376;8.742;2023-04-02T02:17:38;9.00;99.90
14349;DHT22;7258;50.376;8.742;2023-04-02T02:19:44;9.00;99.90
14349;DHT22;7258;50.376;8.742;2023-04-02T02:21:50;9.00;99.90
14349;DHT22;7258;50.376;8.742;2023-04-02T02:23:54;9.00;99.90
14349;DHT22;7258;50.376;8.742;2023-04-02T02:25:57;9.00;99.90
14349;DHT22;7258;50.376;8.742;2023-04-02T02:28:05;9.00;99.90
14349;DHT22;7258;50.376;8.742;2023-04-02T02:30:13;9.00;99.90
14349;DHT22;7258;50.376;8.742;2023-04-02T02:32:19;9.00;99.90
14349;DHT22;7258;50.376;8.742;2023-04-02T02:34:28;9.00;99.90
14349;DHT22;7258;50.376;8.742;2023-04-02T02:36:36;9.00;99.90
14349;DHT22;7258;50.376;8.742;2023-04-02T02:38:47;8.90;99.90
14349;DHT22;7258;50.376;8.742;2023-04-02T02:40:53;8.90;99.90
14349;DHT22;7258;50.376;8.742;2023-04-02T02:43:01;9.00;99.90
14349;DHT22;7258;50.376;8.742;2023-04-02T02:45:10;9.00;99.90
14349;DHT22;7258;50.376;8.742;2023-04-02T02:47:17;9.00;99.90
14349;DHT22;7258;50.376;8.742;2023-04-02T02:49:25;9.00;99.90
14349;DHT22;7258;50.376;8.742;2023-04-02T02:51:41;9.00;99.90
14349;DHT22;7258;50.376;8.742;2023-04-02T02:53:50;9.00;99.90
14349;DHT22;7258;50.376;8.742;2023-04-02T02:55:57;9.00;99.90
14349;DHT22;7258;50.376;8.742;2023-04-02T02:58:05;9.00;99.90
14349;DHT22;7258;50.376;8.742;2023-04-02T03:00:11;9.00;99.90
14349;DHT22;7258;50.376;8.742;2023-04-02T03:02:16;9.00;99.90
14349;DHT22;7258;50.376;8.742;2023-04-02T03:04:21;9.00;99.90
14349;DHT22;7258;50.376;8.742;2023-04-02T03:06:24;9.00;99.90
14349;DHT22;7258;50.376;8.742;2023-04-02T03:08:32;9.00;99.90
14349;DHT22;7258;50.376;8.742;2023-04-02T03:10:42;9.00;99.90
14349;DHT22;7258;50.376;8.742;2023-04-02T03:12:50;9.00;99.90
14349;DHT22;7258;50.376;8.742;2023-04-02T03:15:01;9.00;99.90
14349;DHT22;7258;50.376;8.742;2023-04-02T03:17:10;9.00;99.90
14349;DHT22;7258;50.376;8.742;2023-04-02T03:19:27;8.90;99.90
14349;DHT22;7258;50.376;8.742;2023-04-02T03:21:36;9.00;99.90
14349;DHT22;7258;50.376;8.742;2023-04-02T03:23:46;9.00;99.90
14349;DHT22;7258;50.376;8.742;2023-04-02T03:25:55;9.00;99.90
14349;DHT22;7258;50.376;8.742;2023-04-02T03:28:02;9.00;99.90
14349;DHT22;7258;50.376;8.742;2023-04-02T03:30:24;9.00;99.90
14349;DHT22;7258;50.376;8.742;2023-04-02T03:32:30;9.00;99.90
14349;DHT22;7258;50.376;8.742;2023-04-02T03:34:37;8.90;99.90
14349;DHT22;7258;50.376;8.742;2023-04-02T03:36:51;8.90;99.90
14349;DHT22;7258;50.376;8.742;2023-04-02T03:39:08;8.90;99.90
14349;DHT22;7258;50.376;8.742;2023-04-02T03:41:17;8.90;99.90
14349;DHT22;7258;50.376;8.742;2023-04-02T03:43:24;8.90;99.90
14349;DHT22;7258;50.376;8.742;2023-04-02T03:45:30;8.90;99.90
14349;DHT22;7258;50.376;8.742;2023-04-02T03:47:38;8.90;99.90
14349;DHT22;7258;50.376;8.742;2023-04-02T03:49:48;8.90;99.90
14349;DHT22;7258;50.376;8.742;2023-04-02T03:51:59;8.90;99.90
14349;DHT22;7258;50.376;8.742;2023-04-02T03:54:09;8.90;99.90
14349;DHT22;7258;50.376;8.742;2023-04-02T03:56:25;8.90;99.90
14349;DHT22;7258;50.376;8.742;2023-04-02T03:58:33;8.90;99.90
14349;DHT22;7258;50.376;8.742;2023-04-02T04:00:44;8.90;99.90
14349;DHT22;7258;50.376;8.742;2023-04-02T04:02:50;8.90;99.90
14349;DHT22;7258;50.376;8.742;2023-04-02T04:04:55;8.90;99.90
14349;DHT22;7258;50.376;8.742;2023-04-02T04:06:59;8.90;99.90
14349;DHT22;7258;50.376;8.742;2023-04-02T04:09:08;8.90;99.90
14349;DHT22;7258;50.376;8.742;2023-04-02T04:11:15;8.90;99.90
14349;DHT22;7258;50.376;8.742;2023-04-02T04:13:23;8.90;99.90
14349;DHT22;7258;50.376;8.742;2023-04-02T04:15:32;8.90;99.90
14349;DHT22;7258;50.376;8.742;2023-04-02T04:17:45;8.90;99.90
14349;DHT22;7258;50.376;8.742;2023-04-02T04:19:53;8.80;99.90
14349;DHT22;7258;50.376;8.742;2023-04-02T04:22:15;8.80;99.90
14349;DHT22;7258;50.376;8.742;2023-04-02T04:24:23;8.80;99.90
14349;DHT22;7258;50.376;8.742;2023-04-02T04:26:34;8.80;99.90
14349;DHT22;7258;50.376;8.742;2023-04-02T04:28:47;8.80;99.90
14349;DHT22;7258;50.376;8.742;2023-04-02T04:30:55;8.80;99.90
14349;DHT22;7258;50.376;8.742;2023-04-02T04:33:09;8.80;99.90
14349;DHT22;7258;50.376;8.742;2023-04-02T04:35:20;8.80;99.90
14349;DHT22;7258;50.376;8.742;2023-04-02T04:37:30;8.80;99.90
14349;DHT22;7258;50.376;8.742;2023-04-02T04:39:41;8.80;99.90
14349;DHT22;7258;50.376;8.742;2023-04-02T04:41:45;8.80;99.90
14349;DHT22;7258;50.376;8.742;2023-04-02T04:43:53;8.80;99.90
14349;DHT22;7258;50.376;8.742;2023-04-02T04:45:59;8.80;99.90
14349;DHT22;7258;50.376;8.742;2023-04-02T04:48:09;8.80;99.90
14349;DHT22;7258;50.376;8.742;2023-04-02T04:50:17;8.80;99.90
14349;DHT22;7258;50.376;8.742;2023-04-02T04:52:25;8.80;99.90
14349;DHT22;7258;50.376;8.742;2023-04-02T04:54:29;8.80;99.90
14349;DHT22;7258;50.376;8.742;2023-04-02T04:56:33;8.80;99.90
14349;DHT22;7258;50.376;8.742;2023-04-02T04:58:42;8.70;99.90
14349;DHT22;7258;50.376;8.742;2023-04-02T05:00:55;8.70;99.90
14349;DHT22;7258;50.376;8.742;2023-04-02T05:03:07;8.60;99.90
14349;DHT22;7258;50.376;8.742;2023-04-02T05:05:17;8.60;99.90
14349;DHT22;7258;50.376;8.742;2023-04-02T05:07:27;8.50;99.90
14349;DHT22;7258;50.376;8.742;2023-04-02T05:09:34;8.50;99.90
14349;DHT22;7258;50.376;8.742;2023-04-02T05:11:42;8.40;99.90
14349;DHT22;7258;50.376;8.742;2023-04-02T05:13:49;8.20;99.90
14349;DHT22;7258;50.376;8.742;2023-04-02T05:16:00;8.00;99.90
14349;DHT22;7258;50.376;8.742;2023-04-02T05:18:18;7.80;99.90
14349;DHT22;7258;50.376;8.742;2023-04-02T05:20:26;7.70;99.90
14349;DHT22;7258;50.376;8.742;2023-04-02T05:22:35;7.60;99.90
14349;DHT22;7258;50.376;8.742;2023-04-02T05:24:48;7.50;99.90
14349;DHT22;7258;50.376;8.742;2023-04-02T05:26:59;7.40;99.90
14349;DHT22;7258;50.376;8.742;2023-04-02T05:29:08;7.40;99.90
14349;DHT22;7258;50.376;8.742;2023-04-02T05:31:15;7.30;99.90
14349;DHT22;7258;50.376;8.742;2023-04-02T05:33:22;7.30;99.90
14349;DHT22;7258;50.376;8.742;2023-04-02T05:35:30;7.30;99.90
14349;DHT22;7258;50.376;8.742;2023-04-02T05:37:38;7.30;99.90
14349;DHT22;7258;50.376;8.742;2023-04-02T05:39:43;7.20;99.90
14349;DHT22;7258;50.376;8.742;2023-04-02T05:41:58;7.20;99.90
14349;DHT22;7258;50.376;8.742;2023-04-02T05:44:07;7.10;99.90
14349;DHT22;7258;50.376;8.742;2023-04-02T05:46:15;7.10;99.90
14349;DHT22;7258;50.376;8.742;2023-04-02T05:48:21;7.10;99.90
14349;DHT22;7258;50.376;8.742;2023-04-02T05:50:29;7.00;99.90
14349;DHT22;7258;50.376;8.742;2023-04-02T05:52:42;7.00;99.90
14349;DHT22;7258;50.376;8.742;2023-04-02T05:54:50;6.90;99.90
14349;DHT22;7258;50.376;8.742;2023-04-02T05:57:02;6.90;99.90
14349;DHT22;7258;50.376;8.742;2023-04-02T05:59:08;6.80;99.90
14349;DHT22;7258;50.376;8.742;2023-04-02T06:01:18;6.80;99.90
14349;DHT22;7258;50.376;8.742;2023-04-02T06:03:28;6.80;99.90
14349;DHT22;7258;50.376;8.742;2023-04-02T06:05:35;6.90;99.90
14349;DHT22;7258;50.376;8.742;2023-04-02T06:07:42;6.90;99.90
14349;DHT22;7258;50.376;8.742;2023-04-02T06:09:50;6.90;99.90
14349;DHT22;7258;50.376;8.742;2023-04-02T06:12:03;6.90;99.90
14349;DHT22;7258;50.376;8.742;2023-04-02T06:14:11;7.00;99.90
14349;DHT22;7258;50.376;8.742;2023-04-02T06:16:15;7.00;99.90
14349;DHT22;7258;50.376;8.742;2023-04-02T06:18:21;7.00;99.90
14349;DHT22;7258;50.376;8.742;2023-04-02T06:20:25;7.00;99.90
14349;DHT22;7258;50.376;8.742;2023-04-02T06:22:32;7.00;99.90
14349;DHT22;7258;50.376;8.742;2023-04-02T06:24:38;6.90;99.90
14349;DHT22;7258;50.376;8.742;2023-04-02T06:26:43;6.90;99.90
14349;DHT22;7258;50.376;8.742;2023-04-02T06:28:51;6.90;99.90
14349;DHT22;7258;50.376;8.742;2023-04-02T06:31:02;6.80;99.90
14349;DHT22;7258;50.376;8.742;2023-04-02T06:33:10;6.80;99.90
14349;DHT22;7258;50.376;8.742;2023-04-02T06:35:14;6.80;99.90
14349;DHT22;7258;50.376;8.742;2023-04-02T06:37:22;6.80;99.90
14349;DHT22;7258;50.376;8.742;2023-04-02T06:39:26;6.80;99.90
14349;DHT22;7258;50.376;8.742;2023-04-02T06:41:29;6.80;99.90
14349;DHT22;7258;50.376;8.742;2023-04-02T06:43:36;6.80;99.90
14349;DHT22;7258;50.376;8.742;2023-04-02T06:45:45;6.80;99.90
14349;DHT22;7258;50.376;8.742;2023-04-02T06:47:51;6.80;99.90
14349;DHT22;7258;50.376;8.742;2023-04-02T06:50:02;6.80;99.90
14349;DHT22;7258;50.376;8.742;2023-04-02T06:52:12;6.80;99.90
14349;DHT22;7258;50.376;8.742;2023-04-02T06:54:19;6.80;99.90
14349;DHT22;7258;50.376;8.742;2023-04-02T06:56:35;6.70;99.90
14349;DHT22;7258;50.376;8.742;2023-04-02T06:58:39;6.70;99.90
14349;DHT22;7258;50.376;8.742;2023-04-02T07:00:45;6.70;99.90
14349;DHT22;7258;50.376;8.742;2023-04-02T07:02:48;6.70;99.90
14349;DHT22;7258;50.376;8.742;2023-04-02T07:04:57;6.60;99.90
14349;DHT22;7258;50.376;8.742;2023-04-02T07:07:02;6.60;99.90
14349;DHT22;7258;50.376;8.742;2023-04-02T07:09:05;6.50;99.90
14349;DHT22;7258;50.376;8.742;2023-04-02T07:11:09;6.50;99.90
14349;DHT22;7258;50.376;8.742;2023-04-02T07:13:15;6.40;99.90
14349;DHT22;7258;50.376;8.742;2023-04-02T07:15:24;6.30;99.90
14349;DHT22;7258;50.376;8.742;2023-04-02T07:17:29;6.20;99.90
14349;DHT22;7258;50.376;8.742;2023-04-02T07:19:34;6.10;99.90
14349;DHT22;7258;50.376;8.742;2023-04-02T07:21:40;6.10;99.90
14349;DHT22;7258;50.376;8.742;2023-04-02T07:23:45;6.10;99.90
14349;DHT22;7258;50.376;8.742;2023-04-02T07:25:50;6.00;99.90
14349;DHT22;7258;50.376;8.742;2023-04-02T07:27:53;6.00;99.90
14349;DHT22;7258;50.376;8.742;2023-04-02T07:30:12;6.00;99.90
14349;DHT22;7258;50.376;8.742;2023-04-02T07:32:18;6.00;99.90
14349;DHT22;7258;50.376;8.742;2023-04-02T07:34:23;5.90;99.90
14349;DHT22;7258;50.376;8.742;2023-04-02T07:36:28;5.90;99.90
14349;DHT22;7258;50.376;8.742;2023-04-02T07:38:31;5.90;99.90
14349;DHT22;7258;50.376;8.742;2023-04-02T07:40:34;5.90;99.90
14349;DHT22;7258;50.376;8.742;2023-04-02T07:42:37;5.90;99.90
14349;DHT22;7258;50.376;8.742;2023-04-02T07:44:40;6.00;99.90
14349;DHT22;7258;50.376;8.742;2023-04-02T07:46:43;6.00;99.90
14349;DHT22;7258;50.376;8.742;2023-04-02T07:48:46;6.00;99.90
14349;DHT22;7258;50.376;8.742;2023-04-02T07:50:51;6.10;99.90
14349;DHT22;7258;50.376;8.742;2023-04-02T07:52:54;6.10;99.90
14349;DHT22;7258;50.376;8.742;2023-04-02T07:54:57;6.10;99.90
14349;DHT22;7258;50.376;8.742;2023-04-02T07:57:00;6.10;99.90
14349;DHT22;7258;50.376;8.742;2023-04-02T07:59:04;6.10;99.90
14349;DHT22;7258;50.376;8.742;2023-04-02T08:01:16;6.10;99.90
14349;DHT22;7258;50.376;8.742;2023-04-02T08:03:28;6.10;99.90
14349;DHT22;7258;50.376;8.742;2023-04-02T08:05:32;6.20;99.90
14349;DHT22;7258;50.376;8.742;2023-04-02T08:07:40;6.20;99.90
14349;DHT22;7258;50.376;8.742;2023-04-02T08:09:43;6.20;99.90
14349;DHT22;7258;50.376;8.742;2023-04-02T08:11:54;6.20;99.90
14349;DHT22;7258;50.376;8.742;2023-04-02T08:13:57;6.10;99.90
14349;DHT22;7258;50.376;8.742;2023-04-02T08:16:01;6.10;99.90
14349;DHT22;7258;50.376;8.742;2023-04-02T08:18:05;6.10;99.90
14349;DHT22;7258;50.376;8.742;2023-04-02T08:20:13;6.20;99.90
14349;DHT22;7258;50.376;8.742;2023-04-02T08:22:19;6.10;99.90
14349;DHT22;7258;50.376;8.742;2023-04-02T08:24:23;6.10;99.90
14349;DHT22;7258;50.376;8.742;2023-04-02T08:26:27;6.10;99.90
14349;DHT22;7258;50.376;8.742;2023-04-02T08:28:33;6.00;99.90
14349;DHT22;7258;50.376;8.742;2023-04-02T08:30:39;6.00;99.90
14349;DHT22;7258;50.376;8.742;2023-04-02T08:32:42;6.00;99.90
14349;DHT22;7258;50.376;8.742;2023-04-02T08:34:45;5.90;99.90
14349;DHT22;7258;50.376;8.742;2023-04-02T08:36:55;5.90;99.90
14349;DHT22;7258;50.376;8.742;2023-04-02T08:38:58;5.80;99.90
14349;DHT22;7258;50.376;8.742;2023-04-02T08:41:03;5.80;99.90
14349;DHT22;7258;50.376;8.742;2023-04-02T08:43:15;5.80;99.90
14349;DHT22;7258;50.376;8.742;2023-04-02T08:45:34;5.80;99.90
14349;DHT22;7258;50.376;8.742;2023-04-02T08:47:40;5.70;99.90
14349;DHT22;7258;50.376;8.742;2023-04-02T08:49:49;5.70;99.90
14349;DHT22;7258;50.376;8.742;2023-04-02T08:51:53;5.70;99.90
14349;DHT22;7258;50.376;8.742;2023-04-02T08:54:00;5.70;99.90
14349;DHT22;7258;50.376;8.742;2023-04-02T08:56:08;5.80;99.90
14349;DHT22;7258;50.376;8.742;2023-04-02T08:58:25;5.80;99.90
14349;DHT22;7258;50.376;8.742;2023-04-02T09:00:34;5.80;99.90
14349;DHT22;7258;50.376;8.742;2023-04-02T09:02:40;5.80;99.90
14349;DHT22;7258;50.376;8.742;2023-04-02T09:04:46;5.80;99.90
14349;DHT22;7258;50.376;8.742;2023-04-02T09:06:52;5.90;99.90
14349;DHT22;7258;50.376;8.742;2023-04-02T09:08:56;6.00;99.90
14349;DHT22;7258;50.376;8.742;2023-04-02T09:11:07;6.00;99.90
14349;DHT22;7258;50.376;8.742;2023-04-02T09:13:16;6.10;99.90
14349;DHT22;7258;50.376;8.742;2023-04-02T09:15:27;6.20;99.90
14349;DHT22;7258;50.376;8.742;2023-04-02T09:17:34;6.20;99.90
14349;DHT22;7258;50.376;8.742;2023-04-02T09:19:56;6.30;99.90
14349;DHT22;7258;50.376;8.742;2023-04-02T09:22:05;6.30;99.90
14349;DHT22;7258;50.376;8.742;2023-04-02T09:24:11;6.40;99.90
14349;DHT22;7258;50.376;8.742;2023-04-02T09:26:20;6.40;99.90
14349;DHT22;7258;50.376;8.742;2023-04-02T09:28:25;6.50;99.90
14349;DHT22;7258;50.376;8.742;2023-04-02T09:30:39;6.50;99.90
14349;DHT22;7258;50.376;8.742;2023-04-02T09:32:47;6.50;99.90
14349;DHT22;7258;50.376;8.742;2023-04-02T09:35:08;6.50;99.90
14349;DHT22;7258;50.376;8.742;2023-04-02T09:37:27;6.50;99.90
14349;DHT22;7258;50.376;8.742;2023-04-02T09:39:30;6.40;99.90
14349;DHT22;7258;50.376;8.742;2023-04-02T09:41:35;6.40;99.90
14349;DHT22;7258;50.376;8.742;2023-04-02T09:43:38;6.50;99.90
14349;DHT22;7258;50.376;8.742;2023-04-02T09:45:42;6.40;99.90
14349;DHT22;7258;50.376;8.742;2023-04-02T09:47:45;6.50;99.90
14349;DHT22;7258;50.376;8.742;2023-04-02T09:49:48;6.50;99.90
14349;DHT22;7258;50.376;8.742;2023-04-02T09:52:26;6.50;99.90
14349;DHT22;7258;50.376;8.742;2023-04-02T09:54:29;6.60;99.90
14349;DHT22;7258;50.376;8.742;2023-04-02T09:56:34;6.60;99.90
14349;DHT22;7258;50.376;8.742;2023-04-02T09:58:37;6.70;99.90
14349;DHT22;7258;50.376;8.742;2023-04-02T10:00:49;6.70;99.90
14349;DHT22;7258;50.376;8.742;2023-04-02T10:03:01;6.70;99.90
14349;DHT22;7258;50.376;8.742;2023-04-02T10:05:14;6.80;99.90
14349;DHT22;7258;50.376;8.742;2023-04-02T10:07:43;6.80;99.90
14349;DHT22;7258;50.376;8.742;2023-04-02T10:09:56;6.70;99.90
14349;DHT22;7258;50.376;8.742;2023-04-02T10:12:04;6.70;99.90
14349;DHT22;7258;50.376;8.742;2023-04-02T10:14:10;6.70;99.90
14349;DHT22;7258;50.376;8.742;2023-04-02T10:16:21;6.70;99.90
14349;DHT22;7258;50.376;8.742;2023-04-02T10:18:36;6.60;99.90
14349;DHT22;7258;50.376;8.742;2023-04-02T10:20:42;6.70;99.90
14349;DHT22;7258;50.376;8.742;2023-04-02T10:22:52;6.70;99.90
14349;DHT22;7258;50.376;8.742;2023-04-02T10:24:57;6.80;99.90
14349;DHT22;7258;50.376;8.742;2023-04-02T10:27:08;6.90;99.90
14349;DHT22;7258;50.376;8.742;2023-04-02T10:29:40;7.10;99.90
14349;DHT22;7258;50.376;8.742;2023-04-02T10:31:51;7.20;99.90
14349;DHT22;7258;50.376;8.742;2023-04-02T10:34:52;7.30;99.90
14349;DHT22;7258;50.376;8.742;2023-04-02T10:37:01;7.30;99.90
14349;DHT22;7258;50.376;8.742;2023-04-02T10:39:15;7.30;99.90
14349;DHT22;7258;50.376;8.742;2023-04-02T10:41:27;7.30;99.90
14349;DHT22;7258;50.376;8.742;2023-04-02T10:43:42;7.30;99.90
14349;DHT22;7258;50.376;8.742;2023-04-02T10:45:50;7.30;99.90
14349;DHT22;7258;50.376;8.742;2023-04-02T10:47:59;7.30;99.90
14349;DHT22;7258;50.376;8.742;2023-04-02T10:50:24;7.20;99.90
14349;DHT22;7258;50.376;8.742;2023-04-02T10:52:33;7.10;99.90
14349;DHT22;7258;50.376;8.742;2023-04-02T10:54:44;7.00;99.90
14349;DHT22;7258;50.376;8.742;2023-04-02T10:56:50;6.80;99.90
14349;DHT22;7258;50.376;8.742;2023-04-02T10:58:58;6.80;99.90
14349;DHT22;7258;50.376;8.742;2023-04-02T11:01:08;6.80;99.90
14349;DHT22;7258;50.376;8.742;2023-04-02T11:03:17;6.90;99.90
14349;DHT22;7258;50.376;8.742;2023-04-02T11:05:30;7.00;99.90
14349;DHT22;7258;50.376;8.742;2023-04-02T11:07:45;7.00;99.90
14349;DHT22;7258;50.376;8.742;2023-04-02T11:09:53;7.10;99.90
14349;DHT22;7258;50.376;8.742;2023-04-02T11:11:58;7.20;99.90
14349;DHT22;7258;50.376;8.742;2023-04-02T11:14:09;7.20;99.90
14349;DHT22;7258;50.376;8.742;2023-04-02T11:16:15;7.20;99.90
14349;DHT22;7258;50.376;8.742;2023-04-02T11:18:21;7.10;99.90
14349;DHT22;7258;50.376;8.742;2023-04-02T11:20:54;7.10;99.90
14349;DHT22;7258;50.376;8.742;2023-04-02T11:23:05;7.10;99.90
14349;DHT22;7258;50.376;8.742;2023-04-02T11:25:20;7.10;99.90
14349;DHT22;7258;50.376;8.742;2023-04-02T11:27:25;7.10;99.90
14349;DHT22;7258;50.376;8.742;2023-04-02T11:29:31;7.00;99.90
14349;DHT22;7258;50.376;8.742;2023-04-02T11:31:35;6.90;99.90
14349;DHT22;7258;50.376;8.742;2023-04-02T11:33:39;7.00;99.90
14349;DHT22;7258;50.376;8.742;2023-04-02T11:35:48;7.00;99.90
14349;DHT22;7258;50.376;8.742;2023-04-02T11:37:51;7.10;99.90
14349;DHT22;7258;50.376;8.742;2023-04-02T11:39:55;7.20;99.90
14349;DHT22;7258;50.376;8.742;2023-04-02T11:42:05;7.20;99.90
14349;DHT22;7258;50.376;8.742;2023-04-02T11:44:21;7.30;99.90
14349;DHT22;7258;50.376;8.742;2023-04-02T11:46:44;7.30;99.90
14349;DHT22;7258;50.376;8.742;2023-04-02T11:48:47;7.30;99.90
14349;DHT22;7258;50.376;8.742;2023-04-02T11:50:50;7.30;99.90
14349;DHT22;7258;50.376;8.742;2023-04-02T11:52:53;7.20;99.90
14349;DHT22;7258;50.376;8.742;2023-04-02T11:55:14;7.10;99.90
14349;DHT22;7258;50.376;8.742;2023-04-02T11:57:25;7.10;99.90
14349;DHT22;7258;50.376;8.742;2023-04-02T11:59:35;7.10;99.90
14349;DHT22;7258;50.376;8.742;2023-04-02T12:02:00;7.10;99.90
14349;DHT22;7258;50.376;8.742;2023-04-02T12:07:10;7.10;99.90
14349;DHT22;7258;50.376;8.742;2023-04-02T12:09:21;7.10;99.90
14349;DHT22;7258;50.376;8.742;2023-04-02T12:11:33;7.10;99.90
14349;DHT22;7258;50.376;8.742;2023-04-02T12:13:50;7.00;99.90
14349;DHT22;7258;50.376;8.742;2023-04-02T12:15:56;7.10;99.90
14349;DHT22;7258;50.376;8.742;2023-04-02T12:18:12;7.10;99.90
14349;DHT22;7258;50.376;8.742;2023-04-02T12:20:19;7.10;99.90
14349;DHT22;7258;50.376;8.742;2023-04-02T12:22:24;7.20;99.90
14349;DHT22;7258;50.376;8.742;2023-04-02T12:24:28;7.20;99.90
14349;DHT22;7258;50.376;8.742;2023-04-02T12:26:34;7.20;99.90
14349;DHT22;7258;50.376;8.742;2023-04-02T12:28:39;7.20;99.90
14349;DHT22;7258;50.376;8.742;2023-04-02T12:30:43;7.30;99.90
14349;DHT22;7258;50.376;8.742;2023-04-02T12:32:47;7.40;99.90
14349;DHT22;7258;50.376;8.742;2023-04-02T12:34:52;7.50;99.90
14349;DHT22;7258;50.376;8.742;2023-04-02T12:36:57;7.50;99.90
14349;DHT22;7258;50.376;8.742;2023-04-02T12:39:03;7.50;99.90
14349;DHT22;7258;50.376;8.742;2023-04-02T12:41:19;7.50;99.90
14349;DHT22;7258;50.376;8.742;2023-04-02T12:43:26;7.40;99.90
14349;DHT22;7258;50.376;8.742;2023-04-02T12:45:29;7.30;99.90
14349;DHT22;7258;50.376;8.742;2023-04-02T12:47:34;7.30;99.90
14349;DHT22;7258;50.376;8.742;2023-04-02T12:49:38;7.40;99.90
14349;DHT22;7258;50.376;8.742;2023-04-02T12:51:43;7.40;99.90
14349;DHT22;7258;50.376;8.742;2023-04-02T12:53:49;7.40;99.90
14349;DHT22;7258;50.376;8.742;2023-04-02T12:55:53;7.50;99.90
14349;DHT22;7258;50.376;8.742;2023-04-02T12:57:57;7.50;99.90
14349;DHT22;7258;50.376;8.742;2023-04-02T13:00:02;7.40;99.90
14349;DHT22;7258;50.376;8.742;2023-04-02T13:02:17;7.50;99.90
14349;DHT22;7258;50.376;8.742;2023-04-02T13:04:20;7.40;99.90
14349;DHT22;7258;50.376;8.742;2023-04-02T13:06:23;7.40;99.90
14349;DHT22;7258;50.376;8.742;2023-04-02T13:08:30;7.40;99.90
14349;DHT22;7258;50.376;8.742;2023-04-02T13:10:38;7.50;99.90
14349;DHT22;7258;50.376;8.742;2023-04-02T13:12:41;7.50;99.90
14349;DHT22;7258;50.376;8.742;2023-04-02T13:14:44;7.40;99.90
14349;DHT22;7258;50.376;8.742;2023-04-02T13:16:47;7.20;99.90
14349;DHT22;7258;50.376;8.742;2023-04-02T13:18:50;7.10;99.90
14349;DHT22;7258;50.376;8.742;2023-04-02T13:20:54;7.10;99.90
14349;DHT22;7258;50.376;8.742;2023-04-02T13:23:00;7.10;99.90
14349;DHT22;7258;50.376;8.742;2023-04-02T13:25:06;7.20;99.90
14349;DHT22;7258;50.376;8.742;2023-04-02T13:27:09;7.20;99.90
14349;DHT22;7258;50.376;8.742;2023-04-02T13:29:19;7.10;99.90
14349;DHT22;7258;50.376;8.742;2023-04-02T13:31:22;7.00;99.90
14349;DHT22;7258;50.376;8.742;2023-04-02T13:33:25;7.10;99.90
14349;DHT22;7258;50.376;8.742;2023-04-02T13:35:28;7.10;99.90
14349;DHT22;7258;50.376;8.742;2023-04-02T13:37:34;7.20;99.90
14349;DHT22;7258;50.376;8.742;2023-04-02T13:39:37;7.20;99.90
14349;DHT22;7258;50.376;8.742;2023-04-02T13:41:43;7.20;99.90
14349;DHT22;7258;50.376;8.742;2023-04-02T13:43:46;7.20;99.90
14349;DHT22;7258;50.376;8.742;2023-04-02T13:45:50;7.10;99.90
14349;DHT22;7258;50.376;8.742;2023-04-02T13:47:54;7.10;99.90
14349;DHT22;7258;50.376;8.742;2023-04-02T13:50:01;7.10;99.90
14349;DHT22;7258;50.376;8.742;2023-04-02T13:52:09;7.00;99.90
14349;DHT22;7258;50.376;8.742;2023-04-02T13:54:20;6.90;99.90
14349;DHT22;7258;50.376;8.742;2023-04-02T13:56:25;6.90;99.90
14349;DHT22;7258;50.376;8.742;2023-04-02T13:58:29;6.80;99.90
14349;DHT22;7258;50.376;8.742;2023-04-02T14:00:34;6.80;99.90